createdAt,value
2019-04-26T00:01:42.552Z,101105.43
2019-04-26T00:03:45.785Z,101105.27
2019-04-26T00:05:48.132Z,101092.30
2019-04-26T00:07:50.001Z,101096.92
2019-04-26T00:09:52.558Z,101096.76
2019-04-26T00:12:02.795Z,101095.55
2019-04-26T00:14:31.802Z,101090.82
2019-04-26T00:16:42.069Z,101084.10
2019-04-26T00:18:43.847Z,101080.34
2019-04-26T00:20:45.494Z,101084.72
2019-04-26T00:22:47.279Z,101093.23
2019-04-26T00:24:49.024Z,101093.50
2019-04-26T00:26:50.959Z,101088.28
2019-04-26T00:28:53.343Z,101081.97
2019-04-26T00:30:55.160Z,101082.72
2019-04-26T00:32:57.244Z,101085.61
2019-04-26T00:34:59.303Z,101091.04
2019-04-26T00:37:01.102Z,101091.66
2019-04-26T00:39:05.339Z,101085.98
2019-04-26T00:41:07.433Z,101098.05
2019-04-26T00:43:09.201Z,101105.94
2019-04-26T00:45:12.346Z,101101.66
2019-04-26T00:47:15.245Z,101090.63
2019-04-26T00:49:17.162Z,101079.78
2019-04-26T00:51:19.317Z,101086.42
2019-04-26T00:53:21.889Z,101085.05
2019-04-26T00:55:23.915Z,101085.29
2019-04-26T00:57:25.961Z,101083.72
2019-04-26T00:59:27.901Z,101082.83
2019-04-26T01:01:32.744Z,101090.55
2019-04-26T01:03:34.442Z,101090.03
2019-04-26T01:05:38.026Z,101091.46
2019-04-26T01:07:41.390Z,101095.86
2019-04-26T01:09:43.288Z,101090.89
2019-04-26T01:11:45.087Z,101095.70
2019-04-26T01:13:47.140Z,101099.34
2019-04-26T01:15:49.041Z,101098.94
2019-04-26T01:17:50.851Z,101102.83
2019-04-26T01:19:53.513Z,101110.40
2019-04-26T01:21:56.485Z,101117.45
2019-04-26T01:23:58.714Z,101121.89
2019-04-26T01:26:02.912Z,101123.03
2019-04-26T01:28:04.917Z,101120.16
2019-04-26T01:30:07.842Z,101122.79
2019-04-26T01:32:10.567Z,101120.36
2019-04-26T01:34:12.805Z,101124.48
2019-04-26T01:36:14.482Z,101117.60
2019-04-26T01:38:16.255Z,101119.15
2019-04-26T01:40:21.779Z,101127.03
2019-04-26T01:42:32.893Z,101127.03
2019-04-26T01:44:45.179Z,101130.55
2019-04-26T01:46:47.398Z,101124.09
2019-04-26T01:48:54.860Z,101125.78
2019-04-26T01:50:57.411Z,101120.77
2019-04-26T01:52:59.174Z,101114.38
2019-04-26T01:55:01.020Z,101115.75
2019-04-26T01:57:03.187Z,101114.25
2019-04-26T01:59:04.978Z,101118.17
2019-04-26T02:01:18.072Z,101121.58
2019-04-26T02:03:24.004Z,101121.33
2019-04-26T02:05:26.121Z,101116.64
2019-04-26T02:07:40.603Z,101120.20
2019-04-26T02:09:42.471Z,101124.01
2019-04-26T02:11:44.119Z,101126.52
2019-04-26T02:13:45.863Z,101129.34
2019-04-26T02:15:47.788Z,101125.94
2019-04-26T02:17:52.648Z,101130.31
2019-04-26T02:19:54.468Z,101137.19
2019-04-26T02:22:02.987Z,101135.52
2019-04-26T02:24:25.303Z,101137.07
2019-04-26T02:26:32.548Z,101136.19
2019-04-26T02:28:34.565Z,101140.78
2019-04-26T02:30:36.803Z,101128.08
2019-04-26T02:32:38.812Z,101124.76
2019-04-26T02:34:40.476Z,101126.21
2019-04-26T02:36:57.283Z,101124.84
2019-04-26T02:38:46.092Z,101119.09
2019-04-26T02:40:48.245Z,101114.19
2019-04-26T02:42:50.005Z,101114.07
2019-04-26T02:45:48.849Z,101123.62
2019-04-26T02:48:11.042Z,101121.20
2019-04-26T02:50:17.861Z,101129.30
2019-04-26T02:52:27.859Z,101130.92
2019-04-26T02:54:45.769Z,101138.33
2019-04-26T02:56:47.553Z,101122.67
2019-04-26T02:59:20.777Z,101127.68
2019-04-26T03:01:22.240Z,101130.34
2019-04-26T03:03:23.978Z,101137.14
2019-04-26T03:05:25.877Z,101135.45
2019-04-26T03:07:50.396Z,101134.20
2019-04-26T03:09:52.346Z,101132.74
2019-04-26T03:11:58.642Z,101132.59
2019-04-26T03:14:22.914Z,101132.17
2019-04-26T03:16:54.715Z,101127.97
2019-04-26T03:19:09.268Z,101132.50
2019-04-26T03:21:18.768Z,101138.37
2019-04-26T03:23:45.888Z,101137.80
2019-04-26T03:25:58.636Z,101137.39
2019-04-26T03:28:08.469Z,101135.96
2019-04-26T03:30:42.758Z,101148.50
2019-04-26T03:32:59.537Z,101157.14
2019-04-26T03:35:28.982Z,101148.00
2019-04-26T03:38:05.706Z,101157.09
2019-04-26T03:40:36.913Z,101163.23
2019-04-26T03:42:50.473Z,101159.25
2019-04-26T03:45:16.385Z,101156.92
2019-04-26T03:47:24.666Z,101152.88
2019-04-26T03:49:44.163Z,101160.17
2019-04-26T03:52:11.170Z,101167.05
2019-04-26T03:54:16.255Z,101167.12
2019-04-26T03:57:13.149Z,101165.98
2019-04-26T03:59:44.216Z,101156.36
2019-04-26T04:01:53.913Z,101153.25
2019-04-26T04:04:00.322Z,101151.16
2019-04-26T04:06:02.514Z,101162.48
2019-04-26T04:08:05.788Z,101159.97
2019-04-26T04:10:14.933Z,101166.12
2019-04-26T04:12:43.944Z,101169.48
2019-04-26T04:15:11.407Z,101178.50
2019-04-26T04:17:45.662Z,101184.89
2019-04-26T04:20:32.642Z,101188.88
2019-04-26T04:22:41.311Z,101194.55
2019-04-26T04:24:51.515Z,101202.88
2019-04-26T04:27:24.780Z,101195.36
2019-04-26T04:30:02.927Z,101196.49
2019-04-26T04:32:33.658Z,101198.75
2019-04-26T04:34:37.992Z,101200.87
2019-04-26T04:36:46.914Z,101200.38
2019-04-26T04:39:12.156Z,101200.77
2019-04-26T04:41:26.169Z,101192.13
2019-04-26T04:43:41.886Z,101192.73
2019-04-26T04:46:12.247Z,101195.73
2019-04-26T04:48:20.250Z,101188.73
2019-04-26T04:50:34.565Z,101190.88
2019-04-26T04:52:43.228Z,101194.36
2019-04-26T04:55:01.715Z,101192.09
2019-04-26T04:57:05.570Z,101194.21
2019-04-26T04:59:09.586Z,101193.23
2019-04-26T05:01:48.413Z,101207.00
2019-04-26T05:04:13.573Z,101213.61
2019-04-26T05:06:43.659Z,101218.38
2019-04-26T05:08:54.035Z,101219.48
2019-04-26T05:11:04.517Z,101211.22
2019-04-26T05:13:21.390Z,101206.11
2019-04-26T05:15:46.420Z,101203.97
2019-04-26T05:18:06.658Z,101206.23
2019-04-26T05:20:39.410Z,101209.08
2019-04-26T05:23:10.373Z,101212.97
2019-04-26T05:26:18.565Z,101210.29
2019-04-26T05:30:22.979Z,101218.77
2019-04-26T05:32:48.696Z,101228.41
2019-04-26T05:34:58.102Z,101233.35
2019-04-26T05:37:37.040Z,101248.50
2019-04-26T05:39:44.792Z,101271.42
2019-04-26T05:42:16.440Z,101289.26
2019-04-26T05:45:34.613Z,101288.19
2019-04-26T05:48:06.210Z,101285.43
2019-04-26T05:50:44.175Z,101280.56
2019-04-26T05:53:58.047Z,101284.16
2019-04-26T05:56:25.128Z,101277.73
2019-04-26T05:58:51.168Z,101280.79
2019-04-26T06:01:36.747Z,101290.91
2019-04-26T06:04:27.755Z,101286.17
2019-04-26T06:06:37.551Z,101283.42
2019-04-26T06:09:04.267Z,101275.68
2019-04-26T06:11:14.674Z,101274.44
2019-04-26T06:14:18.321Z,101272.36
2019-04-26T06:16:45.013Z,101271.72
2019-04-26T06:19:05.111Z,101270.23
2019-04-26T06:21:18.617Z,101267.06
2019-04-26T06:23:41.415Z,101256.01
2019-04-26T06:26:39.476Z,101264.30
2019-04-26T06:28:56.622Z,101268.44
2019-04-26T06:31:27.591Z,101276.95
2019-04-26T06:33:49.203Z,101280.62
2019-04-26T06:35:54.113Z,101294.37
2019-04-26T06:39:02.124Z,101296.66
2019-04-26T06:41:24.364Z,101298.96
2019-04-26T06:43:34.481Z,101306.52
2019-04-26T06:46:04.716Z,101305.39
2019-04-26T06:48:15.432Z,101306.84
2019-04-26T06:50:23.479Z,101327.02
2019-04-26T06:52:25.188Z,101348.43
2019-04-26T06:54:33.549Z,101352.37
2019-04-26T06:57:15.280Z,101359.63
2019-04-26T06:59:36.186Z,101361.70
2019-04-26T07:01:36.893Z,101366.66
2019-04-26T07:04:20.119Z,101368.52
2019-04-26T07:06:34.574Z,101375.08
2019-04-26T07:08:57.213Z,101377.59
2019-04-26T07:11:59.394Z,101387.41
2019-04-26T07:14:36.277Z,101386.22
2019-04-26T07:16:46.700Z,101379.41
2019-04-26T07:19:58.423Z,101375.75
2019-04-26T07:22:20.123Z,101381.50
2019-04-26T07:24:51.677Z,101394.55
2019-04-26T07:27:17.015Z,101390.17
2019-04-26T07:29:45.945Z,101391.24
2019-04-26T07:31:51.681Z,101398.06
2019-04-26T07:34:39.729Z,101397.88
2019-04-26T07:37:47.177Z,101396.06
2019-04-26T07:40:40.566Z,101398.59
2019-04-26T07:43:10.400Z,101384.09
2019-04-26T07:45:56.697Z,101379.45
2019-04-26T07:48:36.173Z,101389.03
2019-04-26T07:51:32.096Z,101397.55
2019-04-26T07:53:44.856Z,101393.77
2019-04-26T07:55:54.312Z,101387.21
2019-04-26T07:58:40.977Z,101396.41
2019-04-26T08:00:49.675Z,101394.91
2019-04-26T08:03:13.021Z,101391.75
2019-04-26T08:05:17.013Z,101394.23
2019-04-26T08:07:21.131Z,101399.95
2019-04-26T08:09:27.260Z,101398.42
2019-04-26T08:11:50.862Z,101404.26
2019-04-26T08:14:04.759Z,101389.05
2019-04-26T08:16:26.194Z,101382.61
2019-04-26T08:18:35.232Z,101372.86
2019-04-26T08:20:48.224Z,101364.88
2019-04-26T08:22:52.296Z,101362.90
2019-04-26T08:24:54.255Z,101365.94
2019-04-26T08:27:22.570Z,101373.67
2019-04-26T08:29:18.776Z,101372.47
2019-04-26T08:31:23.134Z,101381.11
2019-04-26T08:33:27.754Z,101406.53
2019-04-26T08:35:29.413Z,101418.27
2019-04-26T08:37:52.864Z,101434.95
2019-04-26T08:39:55.146Z,101443.09
2019-04-26T08:41:57.316Z,101450.41
2019-04-26T08:44:24.675Z,101447.52
2019-04-26T08:46:36.154Z,101443.44
2019-04-26T08:49:02.158Z,101443.27
2019-04-26T08:51:09.501Z,101447.20
2019-04-26T08:53:11.551Z,101448.48
2019-04-26T08:55:13.296Z,101450.66
2019-04-26T08:57:15.373Z,101439.35
2019-04-26T08:59:21.362Z,101448.54
2019-04-26T09:01:31.829Z,101457.50
2019-04-26T09:03:40.591Z,101449.03
2019-04-26T09:06:16.942Z,101453.34
2019-04-26T09:08:19.080Z,101453.22
2019-04-26T09:10:20.965Z,101442.59
2019-04-26T09:12:23.579Z,101440.39
2019-04-26T09:14:27.709Z,101453.00
2019-04-26T09:16:29.343Z,101449.88
2019-04-26T09:18:42.404Z,101449.53
2019-04-26T09:20:38.573Z,101452.50
2019-04-26T09:23:03.778Z,101439.89
2019-04-26T09:25:12.956Z,101436.76
2019-04-26T09:27:33.108Z,101443.18
2019-04-26T09:30:04.789Z,101433.09
2019-04-26T09:32:13.090Z,101435.11
2019-04-26T09:34:16.598Z,101443.45
2019-04-26T09:36:18.376Z,101445.06
2019-04-26T09:38:20.282Z,101447.92
2019-04-26T09:40:22.844Z,101449.08
2019-04-26T09:42:39.279Z,101446.58
2019-04-26T09:44:48.462Z,101439.07
2019-04-26T09:47:12.488Z,101439.58
2019-04-26T09:49:27.907Z,101445.29
2019-04-26T09:51:29.600Z,101451.22
2019-04-26T09:53:31.503Z,101443.91
2019-04-26T09:55:35.657Z,101438.38
2019-04-26T09:57:37.130Z,101439.66
2019-04-26T09:59:39.992Z,101434.09
2019-04-26T10:01:42.633Z,101434.09
2019-04-26T10:03:44.547Z,101425.59
2019-04-26T10:05:46.473Z,101431.52
2019-04-26T10:07:48.298Z,101443.04
2019-04-26T10:09:51.621Z,101441.41
2019-04-26T10:11:58.689Z,101441.19
2019-04-26T10:14:06.503Z,101443.77
2019-04-26T10:16:17.543Z,101447.64
2019-04-26T10:18:20.471Z,101450.00
2019-04-26T10:20:23.185Z,101450.47
2019-04-26T10:22:28.839Z,101447.81
2019-04-26T10:24:30.903Z,101445.36
2019-04-26T10:26:32.917Z,101440.79
2019-04-26T10:28:34.543Z,101437.19
2019-04-26T10:30:38.386Z,101436.52
2019-04-26T10:32:40.332Z,101433.34
2019-04-26T10:34:42.716Z,101433.58
2019-04-26T10:36:45.911Z,101438.66
2019-04-26T10:38:47.707Z,101433.45
2019-04-26T10:40:49.460Z,101428.38
2019-04-26T10:42:51.395Z,101432.36
2019-04-26T10:44:53.454Z,101428.45
2019-04-26T10:46:55.896Z,101433.30
2019-04-26T10:49:08.294Z,101421.52
2019-04-26T10:51:03.256Z,101436.12
2019-04-26T10:53:20.587Z,101443.51
2019-04-26T10:55:34.073Z,101444.91
2019-04-26T10:57:38.419Z,101445.83
2019-04-26T10:59:59.907Z,101448.75
2019-04-26T11:02:02.078Z,101452.53
2019-04-26T11:04:03.845Z,101464.66
2019-04-26T11:06:05.640Z,101461.66
2019-04-26T11:08:07.299Z,101466.58
2019-04-26T11:10:09.679Z,101454.00
2019-04-26T11:12:12.580Z,101455.30
2019-04-26T11:14:18.207Z,101454.63
2019-04-26T11:16:17.907Z,101449.27
2019-04-26T11:18:27.080Z,101452.83
2019-04-26T11:20:23.236Z,101456.02
2019-04-26T11:22:29.415Z,101458.09
2019-04-26T11:24:29.051Z,101453.48
2019-04-26T11:26:34.350Z,101454.30
2019-04-26T11:28:34.925Z,101449.65
2019-04-26T11:30:36.720Z,101459.26
2019-04-26T11:32:38.756Z,101462.04
2019-04-26T11:34:42.913Z,101456.93
2019-04-26T11:36:44.735Z,101461.44
2019-04-26T11:38:46.902Z,101467.98
2019-04-26T11:40:58.418Z,101468.83
2019-04-26T11:42:52.615Z,101475.45
2019-04-26T11:45:05.616Z,101474.75
2019-04-26T11:46:59.315Z,101466.78
2019-04-26T11:49:03.168Z,101465.73
2019-04-26T11:51:05.721Z,101474.88
2019-04-26T11:53:10.248Z,101471.30
2019-04-26T11:55:14.951Z,101473.25
2019-04-26T11:57:17.137Z,101473.00
2019-04-26T11:59:19.361Z,101480.27
2019-04-26T12:01:23.104Z,101484.14
2019-04-26T12:03:25.928Z,101488.38
2019-04-26T12:05:50.426Z,101483.50
2019-04-26T12:07:56.976Z,101487.59
2019-04-26T12:10:00.803Z,101482.17
2019-04-26T12:12:04.897Z,101484.72
2019-04-26T12:14:19.388Z,101485.17
2019-04-26T12:16:10.553Z,101485.69
2019-04-26T12:18:12.746Z,101482.81
2019-04-26T12:20:14.796Z,101481.39
2019-04-26T12:22:16.577Z,101476.58
2019-04-26T12:24:18.323Z,101478.80
2019-04-26T12:26:21.635Z,101481.84
2019-04-26T12:28:23.761Z,101482.30
2019-04-26T12:30:28.323Z,101479.78
2019-04-26T12:32:30.115Z,101484.31
2019-04-26T12:34:31.931Z,101481.44
2019-04-26T12:36:33.787Z,101479.88
2019-04-26T12:38:36.047Z,101485.70
2019-04-26T12:40:37.829Z,101489.09
2019-04-26T12:42:39.547Z,101495.38
2019-04-26T12:45:03.556Z,101497.44
2019-04-26T12:47:38.628Z,101492.23
2019-04-26T12:49:41.276Z,101485.15
2019-04-26T12:51:47.281Z,101483.47
2019-04-26T12:53:47.246Z,101486.97
2019-04-26T12:55:52.682Z,101485.26
2019-04-26T12:57:52.818Z,101494.59
2019-04-26T12:59:57.469Z,101506.97
2019-04-26T13:02:05.446Z,101503.20
2019-04-26T13:04:03.750Z,101507.95
2019-04-26T13:06:05.553Z,101508.50
2019-04-26T13:08:07.577Z,101503.42
2019-04-26T13:10:31.378Z,101501.05
2019-04-26T13:12:46.130Z,101503.34
2019-04-26T13:15:07.814Z,101510.33
2019-04-26T13:17:12.704Z,101506.63
2019-04-26T13:19:16.064Z,101512.20
2019-04-26T13:21:18.339Z,101508.48
2019-04-26T13:23:20.215Z,101511.39
2019-04-26T13:25:26.499Z,101512.25
2019-04-26T13:27:25.951Z,101508.30
2019-04-26T13:29:31.152Z,101507.64
2019-04-26T13:31:33.924Z,101510.70
2019-04-26T13:33:35.898Z,101504.39
2019-04-26T13:35:41.370Z,101506.41
2019-04-26T13:37:41.643Z,101513.17
2019-04-26T13:39:43.949Z,101498.89
2019-04-26T13:41:45.852Z,101500.45
2019-04-26T13:43:47.803Z,101504.66
2019-04-26T13:46:07.949Z,101505.02
2019-04-26T13:48:27.619Z,101501.61
2019-04-26T13:50:42.194Z,101501.56
2019-04-26T13:52:43.921Z,101504.73
2019-04-26T13:54:45.868Z,101508.06
2019-04-26T13:56:47.632Z,101506.08
2019-04-26T13:58:49.370Z,101507.00
2019-04-26T14:00:51.016Z,101508.91
2019-04-26T14:02:52.789Z,101506.45
2019-04-26T14:04:54.659Z,101503.02
2019-04-26T14:06:56.534Z,101500.80
2019-04-26T14:09:02.740Z,101492.09
2019-04-26T14:11:02.244Z,101504.63
2019-04-26T14:13:04.673Z,101493.55
2019-04-26T14:15:08.648Z,101493.70
2019-04-26T14:17:09.861Z,101498.41
2019-04-26T14:19:15.555Z,101502.35
2019-04-26T14:21:15.489Z,101500.36
2019-04-26T14:23:26.682Z,101495.69
2019-04-26T14:25:36.268Z,101501.18
2019-04-26T14:27:49.913Z,101496.27
2019-04-26T14:29:51.392Z,101498.17
2019-04-26T14:31:53.319Z,101488.92
2019-04-26T14:33:55.294Z,101486.81
2019-04-26T14:35:57.200Z,101476.28
2019-04-26T14:37:59.231Z,101480.40
2019-04-26T14:40:15.974Z,101475.71
2019-04-26T14:42:05.011Z,101470.32
2019-04-26T14:44:15.395Z,101468.42
2019-04-26T14:46:14.725Z,101465.89
2019-04-26T14:48:22.243Z,101469.15
2019-04-26T14:50:18.670Z,101462.83
2019-04-26T14:52:20.573Z,101455.92
2019-04-26T14:54:24.116Z,101459.91
2019-04-26T14:56:29.231Z,101463.78
2019-04-26T14:58:32.117Z,101456.72
2019-04-26T15:00:35.693Z,101458.84
2019-04-26T15:02:49.379Z,101461.97
2019-04-26T15:04:58.191Z,101455.14
2019-04-26T15:06:59.787Z,101455.89
2019-04-26T15:09:02.957Z,101448.73
2019-04-26T15:11:04.893Z,101464.30
2019-04-26T15:13:17.300Z,101460.99
2019-04-26T15:15:10.445Z,101471.55
2019-04-26T15:17:12.570Z,101466.45
2019-04-26T15:19:15.888Z,101467.22
2019-04-26T15:21:17.794Z,101461.55
2019-04-26T15:23:23.856Z,101467.78
2019-04-26T15:25:25.246Z,101457.30
2019-04-26T15:27:27.371Z,101471.40
2019-04-26T15:29:29.329Z,101462.30
2019-04-26T15:31:32.978Z,101457.55
2019-04-26T15:33:36.108Z,101460.45
2019-04-26T15:35:38.057Z,101461.54
2019-04-26T15:37:39.922Z,101454.92
2019-04-26T15:39:56.828Z,101460.05
2019-04-26T15:42:25.260Z,101461.52
2019-04-26T15:44:32.639Z,101461.97
2019-04-26T15:46:53.757Z,101466.01
2019-04-26T15:49:05.056Z,101460.13
2019-04-26T15:51:06.963Z,101467.63
2019-04-26T15:53:12.736Z,101460.84
2019-04-26T15:55:13.364Z,101452.35
2019-04-26T15:57:15.435Z,101454.82
2019-04-26T15:59:18.454Z,101458.30
2019-04-26T16:01:21.250Z,101453.53
2019-04-26T16:03:23.217Z,101463.84
2019-04-26T16:05:29.567Z,101457.52
2019-04-26T16:07:29.286Z,101456.31
2019-04-26T16:09:32.558Z,101452.49
2019-04-26T16:11:34.836Z,101462.06
2019-04-26T16:13:36.612Z,101456.20
2019-04-26T16:15:38.447Z,101455.77
2019-04-26T16:17:41.267Z,101452.98
2019-04-26T16:19:43.132Z,101454.16
2019-04-26T16:21:48.201Z,101459.28
2019-04-26T16:23:54.117Z,101462.09
2019-04-26T16:25:52.959Z,101461.74
2019-04-26T16:28:12.922Z,101464.61
2019-04-26T16:30:32.607Z,101458.57
2019-04-26T16:32:58.829Z,101466.89
2019-04-26T16:35:00.056Z,101461.83
2019-04-26T16:37:03.051Z,101461.48
2019-04-26T16:39:07.068Z,101459.66
2019-04-26T16:41:08.955Z,101456.80
2019-04-26T16:43:11.163Z,101463.55
2019-04-26T16:45:14.554Z,101462.53
2019-04-26T16:47:16.462Z,101458.48
2019-04-26T16:49:18.281Z,101461.42
2019-04-26T16:51:20.194Z,101462.97
2019-04-26T16:53:39.058Z,101462.78
2019-04-26T16:55:25.974Z,101460.35
2019-04-26T16:57:27.881Z,101456.03
2019-04-26T16:59:29.723Z,101452.88
2019-04-26T17:01:33.381Z,101458.65
2019-04-26T17:03:38.304Z,101463.22
2019-04-26T17:05:47.568Z,101463.00
2019-04-26T17:07:45.734Z,101462.83
2019-04-26T17:10:03.116Z,101467.08
2019-04-26T17:11:52.248Z,101461.06
2019-04-26T17:13:56.762Z,101465.20
2019-04-26T17:15:59.768Z,101462.73
2019-04-26T17:18:02.559Z,101467.53
2019-04-26T17:20:06.675Z,101465.23
2019-04-26T17:22:44.510Z,101462.23
2019-04-26T17:24:53.402Z,101455.70
2019-04-26T17:27:05.333Z,101455.70
2019-04-26T17:29:07.697Z,101460.13
2019-04-26T17:31:09.583Z,101460.61
2019-04-26T17:33:13.039Z,101463.59
2019-04-26T17:35:15.014Z,101462.09
2019-04-26T17:37:17.576Z,101461.65
2019-04-26T17:39:22.349Z,101460.28
2019-04-26T17:41:23.454Z,101462.71
2019-04-26T17:43:25.207Z,101460.73
2019-04-26T17:45:26.977Z,101459.70
2019-04-26T17:47:33.002Z,101462.25
2019-04-26T17:49:34.576Z,101458.31
2019-04-26T17:51:43.646Z,101461.67
2019-04-26T17:53:40.185Z,101451.38
2019-04-26T17:55:45.893Z,101450.45
2019-04-26T17:57:48.440Z,101452.97
2019-04-26T17:59:51.544Z,101458.08
2019-04-26T18:02:00.923Z,101456.00
2019-04-26T18:03:57.178Z,101458.68
2019-04-26T18:06:00.856Z,101457.64
2019-04-26T18:08:30.621Z,101454.39
2019-04-26T18:10:07.669Z,101457.16
2019-04-26T18:12:09.810Z,101452.77
2019-04-26T18:14:21.322Z,101455.67
2019-04-26T18:16:17.813Z,101454.97
2019-04-26T18:18:50.057Z,101464.02
2019-04-26T18:21:07.059Z,101462.50
2019-04-26T18:23:15.475Z,101461.70
2019-04-26T18:25:15.393Z,101451.39
2019-04-26T18:27:17.301Z,101453.48
2019-04-26T18:29:19.200Z,101451.61
2019-04-26T18:31:23.697Z,101450.69
2019-04-26T18:33:26.093Z,101453.47
2019-04-26T18:35:28.059Z,101458.09
2019-04-26T18:37:29.839Z,101461.55
2019-04-26T18:39:33.148Z,101463.05
2019-04-26T18:41:35.292Z,101474.27
2019-04-26T18:43:37.427Z,101479.79
2019-04-26T18:45:39.734Z,101474.75
2019-04-26T18:47:43.878Z,101473.48
2019-04-26T18:49:46.076Z,101478.56
2019-04-26T18:51:48.367Z,101480.16
2019-04-26T18:54:14.419Z,101483.61
2019-04-26T18:56:14.042Z,101482.58
2019-04-26T18:58:15.851Z,101485.88
2019-04-26T19:00:37.679Z,101488.31
2019-04-26T19:02:39.737Z,101491.42
2019-04-26T19:04:48.022Z,101485.45
2019-04-26T19:06:45.460Z,101491.37
2019-04-26T19:08:50.159Z,101493.03
2019-04-26T19:11:00.436Z,101500.42
2019-04-26T19:13:00.195Z,101505.95
2019-04-26T19:15:15.044Z,101506.02
2019-04-26T19:17:36.688Z,101512.98
2019-04-26T19:19:51.684Z,101517.33
2019-04-26T19:21:56.894Z,101510.84
2019-04-26T19:24:07.238Z,101512.23
2019-04-26T19:26:05.431Z,101510.38
2019-04-26T19:28:08.281Z,101509.95
2019-04-26T19:30:12.714Z,101518.48
2019-04-26T19:32:14.814Z,101520.38
2019-04-26T19:34:17.854Z,101519.95
2019-04-26T19:36:24.456Z,101520.53
2019-04-26T19:38:23.455Z,101520.00
2019-04-26T19:40:27.377Z,101514.08
2019-04-26T19:42:30.906Z,101519.61
2019-04-26T19:44:32.652Z,101513.39
2019-04-26T19:47:03.204Z,101512.74
2019-04-26T19:49:36.768Z,101514.79
2019-04-26T19:52:00.562Z,101515.98
2019-04-26T19:54:08.107Z,101519.06
2019-04-26T19:56:35.407Z,101515.59
2019-04-26T19:58:37.791Z,101519.26
2019-04-26T20:00:43.527Z,101517.20
2019-04-26T20:02:43.332Z,101517.92
2019-04-26T20:04:45.341Z,101509.14
2019-04-26T20:06:48.505Z,101512.86
2019-04-26T20:08:51.978Z,101515.27
2019-04-26T20:10:53.982Z,101510.29
2019-04-26T20:12:55.785Z,101509.50
2019-04-26T20:14:58.507Z,101508.83
2019-04-26T20:17:01.755Z,101505.44
2019-04-26T20:19:03.718Z,101511.55
2019-04-26T20:21:06.530Z,101511.36
2019-04-26T20:23:09.793Z,101514.22
2019-04-26T20:25:11.898Z,101512.02
2019-04-26T20:27:20.380Z,101514.08
2019-04-26T20:29:17.918Z,101514.98
2019-04-26T20:31:54.464Z,101512.08
2019-04-26T20:33:56.354Z,101520.18
2019-04-26T20:36:03.355Z,101513.89
2019-04-26T20:38:04.683Z,101521.39
2019-04-26T20:40:17.943Z,101525.63
2019-04-26T20:42:10.347Z,101515.45
2019-04-26T20:44:13.742Z,101518.32
2019-04-26T20:46:15.867Z,101518.14
2019-04-26T20:48:17.826Z,101516.52
2019-04-26T20:50:21.747Z,101514.84
2019-04-26T20:52:25.032Z,101508.66
2019-04-26T20:54:27.005Z,101507.79
2019-04-26T20:56:28.954Z,101509.23
2019-04-26T20:58:30.891Z,101509.17
2019-04-26T21:00:36.473Z,101507.52
2019-04-26T21:02:36.770Z,101499.16
2019-04-26T21:04:38.748Z,101499.41
2019-04-26T21:06:43.428Z,101499.83
2019-04-26T21:08:45.229Z,101496.26
2019-04-26T21:10:46.966Z,101500.16
2019-04-26T21:12:52.115Z,101496.44
2019-04-26T21:14:53.554Z,101488.53
2019-04-26T21:16:55.821Z,101494.30
2019-04-26T21:18:57.914Z,101489.52
2019-04-26T21:21:01.484Z,101502.69
2019-04-26T21:23:03.897Z,101504.45
2019-04-26T21:25:11.819Z,101499.34
2019-04-26T21:27:51.780Z,101495.20
2019-04-26T21:30:13.206Z,101493.52
2019-04-26T21:32:35.433Z,101493.25
2019-04-26T21:34:38.573Z,101494.29
2019-04-26T21:37:17.693Z,101493.56
2019-04-26T21:39:22.884Z,101490.80
2019-04-26T21:41:26.949Z,101484.36
2019-04-26T21:43:29.454Z,101482.02
2019-04-26T21:45:33.913Z,101479.72
2019-04-26T21:47:37.249Z,101483.38
2019-04-26T21:49:39.074Z,101484.28
2019-04-26T21:51:48.041Z,101480.38
2019-04-26T21:53:47.310Z,101474.30
2019-04-26T21:55:49.143Z,101478.20
2019-04-26T21:57:51.117Z,101485.25
2019-04-26T21:59:54.057Z,101483.97
2019-04-26T22:01:59.211Z,101471.11
2019-04-26T22:04:00.097Z,101473.06
2019-04-26T22:06:04.043Z,101471.37
2019-04-26T22:08:06.050Z,101459.42
2019-04-26T22:10:18.045Z,101458.70
2019-04-26T22:12:20.285Z,101465.41
2019-04-26T22:14:24.598Z,101462.67
2019-04-26T22:16:38.109Z,101466.07
2019-04-26T22:19:03.824Z,101461.34
2019-04-26T22:21:12.801Z,101452.66
2019-04-26T22:23:23.665Z,101460.05
2019-04-26T22:25:29.147Z,101453.70
2019-04-26T22:27:31.048Z,101447.30
2019-04-26T22:29:33.350Z,101445.11
2019-04-26T22:31:37.923Z,101450.13
2019-04-26T22:33:39.150Z,101441.02
2019-04-26T22:35:40.938Z,101442.34
2019-04-26T22:37:45.586Z,101440.38
2019-04-26T22:39:46.760Z,101439.31
2019-04-26T22:41:48.694Z,101433.87
2019-04-26T22:43:58.956Z,101432.25
2019-04-26T22:46:26.298Z,101435.34
2019-04-26T22:48:30.032Z,101430.55
2019-04-26T22:50:33.478Z,101427.77
2019-04-26T22:52:35.516Z,101417.53
2019-04-26T22:54:37.817Z,101418.76
2019-04-26T22:56:41.194Z,101420.76
2019-04-26T22:58:44.126Z,101420.84
2019-04-26T23:00:46.894Z,101424.20
2019-04-26T23:02:48.763Z,101417.42
2019-04-26T23:04:50.581Z,101418.97
2019-04-26T23:06:56.228Z,101414.10
2019-04-26T23:08:56.229Z,101408.42
2019-04-26T23:11:02.454Z,101417.19
2019-04-26T23:13:08.720Z,101411.18
2019-04-26T23:15:23.949Z,101406.80
2019-04-26T23:17:49.254Z,101403.55
2019-04-26T23:19:57.371Z,101398.48
2019-04-26T23:21:58.616Z,101390.97
2019-04-26T23:24:00.543Z,101394.84
2019-04-26T23:26:06.212Z,101388.12
2019-04-26T23:28:06.424Z,101389.75
2019-04-26T23:30:09.131Z,101377.09
2019-04-26T23:32:12.130Z,101381.47
2019-04-26T23:34:14.842Z,101376.36
2019-04-26T23:36:18.369Z,101377.23
2019-04-26T23:38:20.584Z,101372.84
2019-04-26T23:40:25.773Z,101368.44
2019-04-26T23:42:26.058Z,101368.35
2019-04-26T23:44:27.718Z,101361.38
2019-04-26T23:46:29.673Z,101359.83
2019-04-26T23:48:32.847Z,101357.64
2019-04-26T23:50:35.050Z,101360.64
2019-04-26T23:52:36.923Z,101354.16
2019-04-26T23:54:38.712Z,101342.28
2019-04-26T23:56:40.424Z,101342.28
2019-04-26T23:58:44.190Z,101349.34
